Používaním stránok prevádzkovaných PROFIPILOT, s.r.o. súhlasíte s používaním cookies, ktoré nám pomáhajú zabezpečiť lepšie služby.OK

Briefing

MAPA | METAR | TAF | METEO SITUÁCIA
MAPA | METAR | TAF | METEO SITUÁCIA

Predpoveď na dnes

Prevažne polojasno, na severe a východe popoludní postupne až veľká oblačnosť. Zrána ojedinele hmlisto alebo nízka oblačnosť. Najvyššia denná teplota 12 až 17, na severe 8 až 12 st. Teplota na horách vo výške 1500 m okolo 1 st. Prevažne severný vietor 2 až 7 m/s( 5 až 25 km/h). V Banskobystrickom kraji len slabý vietor. Predpokladané množstvo zrážok: bez zrážok

SHMÚ, OMPaV, JA 25.3.2017 04:15 SEČ

MAPA | METAR | TAF | METEO SITUÁCIA

TAF - Letisková predpoveď

25.03.2017 - 05:00 UTC

TAF LZIB 250500Z 2506/2606 32006KT 9999 BKN035
     TEMPO 2506/2514 03008KT
     BECMG 2510/2512 CAVOK
     BECMG 2523/2601 36012KT=
 TAF LZKZ 250500Z 2506/2606 02014KT CAVOK
     TEMPO 2514/2519 35008KT
     TEMPO 2523/2606 01015G28KT 9999 FEW040 SCT080=
 TAF LZTT 250500Z 2506/2606 27006KT 9999 FEW035
     TEMPO 2508/2515 13010KT CAVOK
     BECMG 2600/2602 05012KT=
 

25.03.2017 - 05:00 UTC

TAF LZSL 250500Z 2506/2515 VRB02KT 9999 SCT045
     BECMG 2507/2509 16006KT
     BECMG 2513/2515 31010KT CAVOK=
 TAF LZPP 250500Z 2506/2515 02010KT 9999 BKN035
     BECMG 2509/2511 35006KT CAVOK
     TEMPO 2512/2515 33010KT=
 TAF LZZI 250500Z 2506/2515 VRB02KT CAVOK
     BECMG 2508/2510 03008KT 9999 FEW045=
 

25.03.2017 - 02:00 UTC

TAF LZSL 250200Z 2503/2512 VRB02KT 9999 BKN045
     BECMG 2508/2510 18006KT FEW050=
 TAF LZZI 250200Z 2503/2512 09004KT CAVOK
     BECMG 2508/2510 03008KT 9999 FEW035=
 
MAPA | METAR | TAF | METEO SITUÁCIA

METAR - Letisková meteo správa

Letisková meteorologická správa METAR

Meteorologické informácie z ďalších profesionálnych meteorologických staníc SHMÚ zobrazené v tvare zodpovedajúcom pravidlám kódovania správ METAR sú uvedené v položke „METSYN Informácie o správe METAR

25.03.2017 - 05:30 UTC

METAR LZIB 250530Z VRB01KT 9999 BKN032 05/01 Q1027 NOSIG=
 METAR LZKZ 250530Z 01007KT CAVOK 04/01 Q1026 NOSIG=
 METAR LZPP 250530Z 02004KT 9999 BKN040 02/M00 Q1028=
 METAR LZSL 250530Z 02002KT 9999 BKN043 02/M00 Q1027=
 METAR LZTT 250530Z 26006KT 9999 FEW030 M02/M03 Q1026 NOSIG=
 METAR LZZI 250530Z 10003KT CAVOK 00/M01 Q1028=
 

25.03.2017 - 05:00 UTC

METAR LZIB 250500Z 35004KT 9999 BKN034 05/00 Q1027 NOSIG=
 METAR LZKZ 250500Z 02007KT CAVOK 03/00 Q1026=
 METAR LZPP 250500Z 02006KT 9999 SCT035 02/M00 Q1028=
 METAR LZSL 250500Z 36004KT 9999 FEW045 02/M00 Q1027=
 METAR LZTT 250500Z 27005KT 9999 FEW030 M03/M04 Q1026=
 METAR LZZI 250500Z 10002KT CAVOK M00/M01 Q1028=
 

25.03.2017 - 05:00 UTC

METAR LZMC 250500Z 07002KT 2500 BR BKN032 M02/M03
 Q1028=
 METAR LZPW 250500Z 08002KT CAVOK 02/M00 Q1027=
 
načítavam...